createdAt,value
2023-04-05T00:01:34.448Z,22.27
2023-04-05T00:04:03.850Z,22.21
2023-04-05T00:06:32.521Z,22.28
2023-04-05T00:09:02.122Z,22.10
2023-04-05T00:11:31.583Z,22.25
2023-04-05T00:14:00.854Z,22.38
2023-04-05T00:16:30.881Z,22.29
2023-04-05T00:19:00.358Z,22.15
2023-04-05T00:21:28.539Z,22.41
2023-04-05T00:23:58.679Z,22.32
2023-04-05T00:26:27.496Z,22.17
2023-04-05T00:28:56.215Z,22.10
2023-04-05T00:31:24.451Z,22.21
2023-04-05T00:33:54.585Z,22.36
2023-04-05T00:36:22.790Z,22.41
2023-04-05T00:38:51.684Z,22.63
2023-04-05T00:41:19.886Z,22.67
2023-04-05T00:43:48.538Z,22.96
2023-04-05T00:46:16.974Z,22.80
2023-04-05T00:48:45.614Z,22.98
2023-04-05T00:51:15.377Z,22.86
2023-04-05T00:53:45.093Z,22.86
2023-04-05T00:56:14.241Z,22.94
2023-04-05T00:58:43.107Z,22.87
2023-04-05T01:01:14.753Z,22.82
2023-04-05T01:03:46.349Z,22.82
2023-04-05T01:06:28.188Z,21.93
2023-04-05T01:09:02.480Z,22.51
2023-04-05T01:11:32.390Z,22.80
2023-04-05T01:14:01.142Z,22.94
2023-04-05T01:16:29.926Z,22.80
2023-04-05T01:18:58.775Z,22.75
2023-04-05T01:22:14.292Z,22.02
2023-04-05T01:24:57.687Z,22.09
2023-04-05T01:27:34.692Z,22.06
2023-04-05T01:30:08.414Z,22.18
2023-04-05T01:32:54.096Z,21.62
2023-04-05T01:35:25.664Z,21.82
2023-04-05T01:37:57.595Z,21.49
2023-04-05T01:40:26.173Z,21.59
2023-04-05T01:42:54.617Z,21.48
2023-04-05T01:45:24.511Z,21.19
2023-04-05T01:47:52.871Z,21.17
2023-04-05T01:50:21.726Z,21.27
2023-04-05T01:52:49.881Z,21.11
2023-04-05T01:55:18.351Z,20.99
2023-04-05T01:57:46.467Z,20.76
2023-04-05T02:00:15.588Z,20.64
2023-04-05T02:02:45.676Z,20.18
2023-04-05T02:05:14.498Z,20.51
2023-04-05T02:07:42.767Z,20.35
2023-04-05T02:10:11.704Z,20.21
2023-04-05T02:12:40.077Z,20.31
2023-04-05T02:15:09.759Z,20.32
2023-04-05T02:17:39.459Z,20.47
2023-04-05T02:20:12.572Z,20.18
2023-04-05T02:22:41.043Z,20.57
2023-04-05T02:25:10.152Z,20.56
2023-04-05T02:27:38.405Z,20.63
2023-04-05T02:30:08.249Z,20.69
2023-04-05T02:32:36.520Z,20.68
2023-04-05T02:35:05.258Z,20.84
2023-04-05T02:37:34.822Z,20.61
2023-04-05T02:40:05.466Z,20.80
2023-04-05T02:42:33.611Z,20.78
2023-04-05T02:45:02.372Z,20.88
2023-04-05T02:47:30.517Z,20.73
2023-04-05T02:49:58.965Z,21.05
2023-04-05T02:52:27.182Z,20.79
2023-04-05T02:54:57.155Z,20.83
2023-04-05T02:57:25.949Z,21.20
2023-04-05T02:59:54.472Z,20.91
2023-04-05T03:02:22.775Z,20.83
2023-04-05T03:04:53.436Z,20.73
2023-04-05T03:07:22.196Z,21.10
2023-04-05T03:09:51.422Z,21.20
2023-04-05T03:12:21.033Z,21.10
2023-04-05T03:14:49.672Z,21.12
2023-04-05T03:17:17.966Z,21.45
2023-04-05T03:19:46.655Z,21.52
2023-04-05T03:22:14.810Z,21.72
2023-04-05T03:24:43.666Z,21.77
2023-04-05T03:27:13.346Z,21.98
2023-04-05T03:29:44.248Z,21.75
2023-04-05T03:32:14.115Z,22.08
2023-04-05T03:34:42.523Z,22.09
2023-04-05T03:37:11.285Z,21.92
2023-04-05T03:39:39.777Z,21.81
2023-04-05T03:42:08.107Z,22.00
2023-04-05T03:44:36.461Z,21.83
2023-04-05T03:47:06.621Z,21.95
2023-04-05T03:49:35.603Z,21.96
2023-04-05T03:52:03.828Z,22.01
2023-04-05T03:54:32.350Z,22.10
2023-04-05T03:57:01.269Z,22.09
2023-04-05T03:59:29.937Z,22.17
2023-04-05T04:01:58.373Z,22.30
2023-04-05T04:04:28.485Z,22.00
2023-04-05T04:06:57.519Z,21.95
2023-04-05T04:09:28.102Z,21.54
2023-04-05T04:11:56.888Z,21.43
2023-04-05T04:14:25.381Z,21.76
2023-04-05T04:16:53.601Z,22.08
2023-04-05T04:19:22.042Z,22.12
2023-04-05T04:21:52.622Z,21.74
2023-04-05T04:24:21.390Z,21.79
2023-04-05T04:26:50.206Z,21.61
2023-04-05T04:29:18.642Z,21.62
2023-04-05T04:31:48.583Z,21.65
2023-04-05T04:34:18.808Z,21.97
2023-04-05T04:36:48.333Z,22.17
2023-04-05T04:39:18.250Z,21.95
2023-04-05T04:41:47.216Z,21.99
2023-04-05T04:44:15.716Z,21.87
2023-04-05T04:46:43.848Z,21.52
2023-04-05T04:49:13.465Z,21.70
2023-04-05T04:51:42.731Z,21.58
2023-04-05T04:54:13.001Z,21.91
2023-04-05T04:56:42.670Z,21.66
2023-04-05T04:59:11.236Z,21.60
2023-04-05T05:01:41.061Z,21.51
2023-04-05T05:04:09.621Z,21.38
2023-04-05T05:06:38.348Z,21.50
2023-04-05T05:09:06.997Z,21.63
2023-04-05T05:11:35.260Z,21.80
2023-04-05T05:14:05.144Z,21.85
2023-04-05T05:16:33.768Z,21.97
2023-04-05T05:19:02.392Z,21.88
2023-04-05T05:21:31.224Z,21.96
2023-04-05T05:23:59.644Z,22.06
2023-04-05T05:26:27.693Z,22.13
2023-04-05T05:28:56.564Z,22.25
2023-04-05T05:31:27.842Z,22.05
2023-04-05T05:33:56.691Z,21.13
2023-04-05T05:36:28.012Z,20.55
2023-04-05T05:38:56.455Z,19.87
2023-04-05T05:41:24.696Z,19.06
2023-04-05T05:43:53.804Z,18.46
2023-04-05T05:46:22.254Z,18.18
2023-04-05T05:48:52.340Z,17.98
2023-04-05T05:51:20.793Z,18.00
2023-04-05T05:53:49.321Z,18.25
2023-04-05T05:56:17.518Z,18.40
2023-04-05T05:58:46.541Z,18.65
2023-04-05T06:01:14.871Z,18.66
2023-04-05T06:03:43.470Z,18.45
2023-04-05T06:06:13.074Z,18.26
2023-04-05T06:08:41.846Z,18.40
2023-04-05T06:11:21.825Z,18.14
2023-04-05T06:13:50.258Z,18.66
2023-04-05T06:16:18.380Z,18.62
2023-04-05T06:18:47.470Z,18.44
2023-04-05T06:21:17.779Z,18.38
2023-04-05T06:23:46.185Z,18.51
2023-04-05T06:26:19.221Z,17.99
2023-04-05T06:28:49.076Z,18.15
2023-04-05T06:31:17.862Z,17.21
2023-04-05T06:33:46.390Z,16.56
2023-04-05T06:36:16.007Z,16.67
2023-04-05T06:38:44.474Z,17.12
2023-04-05T06:41:12.636Z,17.26
2023-04-05T06:43:41.093Z,17.50
2023-04-05T06:46:11.674Z,15.91
2023-04-05T06:48:40.213Z,14.32
2023-04-05T06:51:08.397Z,12.16
2023-04-05T06:53:38.181Z,10.76
2023-04-05T06:56:06.914Z,10.50
2023-04-05T06:58:35.488Z,9.97
2023-04-05T07:01:04.123Z,9.71
2023-04-05T07:03:32.713Z,9.03
2023-04-05T07:06:01.777Z,9.21
2023-04-05T07:08:33.031Z,8.79
2023-04-05T07:11:02.624Z,9.21
2023-04-05T07:13:31.345Z,8.91
2023-04-05T07:16:03.852Z,7.71
2023-04-05T07:18:32.535Z,7.20
2023-04-05T07:21:04.808Z,6.52
2023-04-05T07:23:33.927Z,6.00
2023-04-05T07:26:05.897Z,5.52
2023-04-05T07:28:36.263Z,4.71
2023-04-05T07:31:05.566Z,4.19
2023-04-05T07:33:35.714Z,4.23
2023-04-05T07:36:07.607Z,3.69
2023-04-05T07:38:36.666Z,3.29
2023-04-05T07:41:07.371Z,3.64
2023-04-05T07:43:36.253Z,3.24
2023-04-05T07:46:05.134Z,3.41
2023-04-05T07:48:34.578Z,3.40
2023-04-05T07:51:07.676Z,3.10
2023-04-05T07:53:39.778Z,2.96
2023-04-05T07:56:11.257Z,2.35
2023-04-05T07:58:41.361Z,2.47
2023-04-05T08:01:14.165Z,1.87
2023-04-05T08:03:44.308Z,1.90
2023-04-05T08:06:15.029Z,1.75
2023-04-05T08:08:43.877Z,1.36
2023-04-05T08:11:15.298Z,1.70
2023-04-05T08:13:44.476Z,1.78
2023-04-05T08:16:13.442Z,1.92
2023-04-05T08:18:43.167Z,2.03
2023-04-05T08:21:12.213Z,1.88
2023-04-05T08:23:41.249Z,2.81
2023-04-05T08:26:09.719Z,2.57
2023-04-05T08:28:39.843Z,1.81
2023-04-05T08:31:14.335Z,2.55
2023-04-05T08:33:46.838Z,3.32
2023-04-05T08:36:15.780Z,4.52
2023-04-05T08:38:44.925Z,5.19
2023-04-05T08:41:20.013Z,5.36
2023-04-05T08:43:59.614Z,3.83
2023-04-05T08:46:28.979Z,2.41
2023-04-05T08:48:58.404Z,3.31
2023-04-05T08:51:28.494Z,4.37
2023-04-05T08:53:58.180Z,5.58
2023-04-05T08:56:29.295Z,6.44
2023-04-05T08:59:05.980Z,5.37
2023-04-05T09:01:38.802Z,5.63
2023-04-05T09:04:09.185Z,5.61
2023-04-05T09:06:38.189Z,6.02
2023-04-05T09:09:09.772Z,6.02
2023-04-05T09:11:39.000Z,4.78
2023-04-05T09:14:11.952Z,3.73
2023-04-05T09:16:43.823Z,3.63
2023-04-05T09:19:12.997Z,4.26
2023-04-05T09:22:01.596Z,4.83
2023-04-05T09:24:37.031Z,5.72
2023-04-05T09:27:07.630Z,5.64
2023-04-05T09:29:48.075Z,5.33
2023-04-05T09:32:18.482Z,5.87
2023-04-05T09:34:53.975Z,6.65
2023-04-05T09:37:26.704Z,6.56
2023-04-05T09:40:07.127Z,5.33
2023-04-05T09:42:46.480Z,3.38
2023-04-05T09:45:18.820Z,2.44
2023-04-05T09:47:56.453Z,1.22
2023-04-05T09:50:26.788Z,0.70
2023-04-05T09:53:08.348Z,0.33
2023-04-05T09:55:38.371Z,0.14
2023-04-05T09:58:07.484Z,0.40
2023-04-05T10:00:38.314Z,0.92
2023-04-05T10:03:08.345Z,1.57
2023-04-05T10:05:37.870Z,2.15
2023-04-05T10:08:07.664Z,1.07
2023-04-05T10:10:40.209Z,0.27
2023-04-05T10:13:10.274Z,0.00
2023-04-05T10:15:42.831Z,0.16
2023-04-05T10:18:15.401Z,0.64
2023-04-05T10:20:53.193Z,1.49
2023-04-05T10:23:29.597Z,2.24
2023-04-05T10:26:06.844Z,3.03
2023-04-05T10:28:38.206Z,2.65
2023-04-05T10:31:21.078Z,1.00
2023-04-05T10:34:06.204Z,0.00
2023-04-05T10:36:44.299Z,0.00
2023-04-05T10:39:16.010Z,0.47
2023-04-05T10:42:00.718Z,1.11
2023-04-05T10:44:33.335Z,0.94
2023-04-05T10:47:08.364Z,0.50
2023-04-05T10:49:43.500Z,0.16
2023-04-05T10:52:13.838Z,1.84
2023-04-05T10:54:43.098Z,2.32
2023-04-05T10:57:16.658Z,1.96
2023-04-05T10:59:52.383Z,0.46
2023-04-05T11:02:32.401Z,0.14
2023-04-05T11:05:26.175Z,0.00
2023-04-05T11:08:02.778Z,0.00
2023-04-05T11:10:46.603Z,0.00
2023-04-05T11:13:53.978Z,0.00
2023-04-05T11:16:28.543Z,0.00
2023-04-05T11:18:59.566Z,0.00
2023-04-05T11:21:44.481Z,0.00
2023-04-05T11:24:22.089Z,0.32
2023-04-05T11:26:58.802Z,1.50
2023-04-05T11:29:56.668Z,2.28
2023-04-05T11:32:27.048Z,3.85
2023-04-05T11:35:09.327Z,4.74
2023-04-05T11:38:11.245Z,5.08
2023-04-05T11:40:56.679Z,3.57
2023-04-05T11:43:33.919Z,3.28
2023-04-05T11:46:05.597Z,4.48
2023-04-05T11:48:39.687Z,4.94
2023-04-05T11:51:26.663Z,5.58
2023-04-05T11:54:08.883Z,6.07
2023-04-05T11:56:52.409Z,6.02
2023-04-05T11:59:30.267Z,5.51
2023-04-05T12:02:26.751Z,5.50
2023-04-05T12:05:09.531Z,5.58
2023-04-05T12:08:01.180Z,5.99
2023-04-05T12:10:42.910Z,6.53
2023-04-05T12:13:32.585Z,6.63
2023-04-05T12:16:12.328Z,7.25
2023-04-05T12:18:45.665Z,7.28
2023-04-05T12:21:19.347Z,7.65
2023-04-05T12:24:14.964Z,7.64
2023-04-05T12:26:44.649Z,7.95
2023-04-05T12:29:14.589Z,7.99
2023-04-05T12:31:52.525Z,8.14
2023-04-05T12:34:30.653Z,8.53
2023-04-05T12:37:03.646Z,8.39
2023-04-05T12:39:37.975Z,8.66
2023-04-05T12:42:08.834Z,8.42
2023-04-05T12:44:41.704Z,8.57
2023-04-05T12:47:15.813Z,8.44
2023-04-05T12:49:49.657Z,8.05
2023-04-05T12:52:24.856Z,7.58
2023-04-05T12:54:57.650Z,7.76
2023-04-05T12:57:33.839Z,7.57
2023-04-05T13:00:06.957Z,7.82
2023-04-05T13:02:39.030Z,7.83
2023-04-05T13:05:14.005Z,8.05
2023-04-05T13:07:49.378Z,7.95
2023-04-05T13:10:25.399Z,8.16
2023-04-05T13:12:57.427Z,8.33
2023-04-05T13:15:38.139Z,8.60
2023-04-05T13:18:15.014Z,8.67
2023-04-05T13:20:45.926Z,8.61
2023-04-05T13:23:18.680Z,8.73
2023-04-05T13:25:54.643Z,8.31
2023-04-05T13:28:24.759Z,8.50
2023-04-05T13:30:54.611Z,8.34
2023-04-05T13:33:40.958Z,8.26
2023-04-05T13:36:14.738Z,8.40
2023-04-05T13:38:53.218Z,8.28
2023-04-05T13:41:25.934Z,8.60
2023-04-05T13:43:54.833Z,7.97
2023-04-05T13:46:33.466Z,8.04
2023-04-05T13:49:05.236Z,8.29
2023-04-05T13:51:41.863Z,8.55
2023-04-05T13:54:14.587Z,8.59
2023-04-05T13:56:51.687Z,8.48
2023-04-05T13:59:23.799Z,8.13
2023-04-05T14:01:56.528Z,8.14
2023-04-05T14:04:28.909Z,8.45
2023-04-05T14:07:02.165Z,8.71
2023-04-05T14:09:32.953Z,8.49
2023-04-05T14:12:04.420Z,8.63
2023-04-05T14:14:33.442Z,8.77
2023-04-05T14:17:03.505Z,9.03
2023-04-05T14:19:32.806Z,9.14
2023-04-05T14:22:06.574Z,9.13
2023-04-05T14:24:35.772Z,9.24
2023-04-05T14:27:07.354Z,9.46
2023-04-05T14:29:42.178Z,9.60
2023-04-05T14:32:12.354Z,9.54
2023-04-05T14:34:45.431Z,9.78
2023-04-05T14:37:21.404Z,9.66
2023-04-05T14:39:50.740Z,9.69
2023-04-05T14:42:31.286Z,10.19
2023-04-05T14:45:06.978Z,10.06
2023-04-05T14:47:37.098Z,10.41
2023-04-05T14:50:08.045Z,10.31
2023-04-05T14:52:37.690Z,10.41
2023-04-05T14:55:07.782Z,10.32
2023-04-05T14:57:41.879Z,10.21
2023-04-05T15:00:12.127Z,10.28
2023-04-05T15:02:41.597Z,10.19
2023-04-05T15:05:15.003Z,9.85
2023-04-05T15:07:44.402Z,9.57
2023-04-05T15:10:13.336Z,9.75
2023-04-05T15:12:44.187Z,9.84
2023-04-05T15:15:13.189Z,9.62
2023-04-05T15:17:44.630Z,9.88
2023-04-05T15:20:13.871Z,9.75
2023-04-05T15:22:43.500Z,9.38
2023-04-05T15:25:14.296Z,9.33
2023-04-05T15:27:45.303Z,9.50
2023-04-05T15:30:15.187Z,9.65
2023-04-05T15:32:44.411Z,9.42
2023-04-05T15:35:14.226Z,9.59
2023-04-05T15:37:46.454Z,9.68
2023-04-05T15:40:15.586Z,9.76
2023-04-05T15:42:46.555Z,10.27
2023-04-05T15:45:18.907Z,10.18
2023-04-05T15:47:48.294Z,10.43
2023-04-05T15:50:17.206Z,10.70
2023-04-05T15:52:46.961Z,10.86
2023-04-05T15:55:16.492Z,10.62
2023-04-05T15:57:49.618Z,10.92
2023-04-05T16:00:22.647Z,10.78
2023-04-05T16:02:54.742Z,10.89
2023-04-05T16:05:25.387Z,10.65
2023-04-05T16:07:55.789Z,10.61
2023-04-05T16:10:25.724Z,10.89
2023-04-05T16:12:59.699Z,10.64
2023-04-05T16:15:28.831Z,10.74
2023-04-05T16:18:03.730Z,10.78
2023-04-05T16:20:39.077Z,11.08
2023-04-05T16:23:08.337Z,11.56
2023-04-05T16:25:37.432Z,11.77
2023-04-05T16:28:08.241Z,11.79
2023-04-05T16:30:41.827Z,11.48
2023-04-05T16:33:18.243Z,11.94
2023-04-05T16:38:41.829Z,12.01
2023-04-05T16:41:24.998Z,12.06
2023-04-05T16:43:56.170Z,12.24
2023-04-05T16:46:25.594Z,12.25
2023-04-05T16:48:57.816Z,12.43
2023-04-05T16:51:26.881Z,12.18
2023-04-05T16:53:56.994Z,12.40
2023-04-05T16:56:25.819Z,12.58
2023-04-05T16:58:57.829Z,12.65
2023-04-05T17:01:26.884Z,12.65
2023-04-05T17:04:00.607Z,12.94
2023-04-05T17:06:29.885Z,12.83
2023-04-05T17:09:03.497Z,12.95
2023-04-05T17:11:32.510Z,12.85
2023-04-05T17:14:03.754Z,13.16
2023-04-05T17:16:33.224Z,12.96
2023-04-05T17:19:05.806Z,13.18
2023-04-05T17:21:35.862Z,13.26
2023-04-05T17:24:08.040Z,13.04
2023-04-05T17:26:37.110Z,13.21
2023-04-05T17:29:08.788Z,13.22
2023-04-05T17:31:37.718Z,13.46
2023-04-05T17:34:08.920Z,13.64
2023-04-05T17:36:39.590Z,13.68
2023-04-05T17:39:11.017Z,13.17
2023-04-05T17:41:41.049Z,13.81
2023-04-05T17:44:15.954Z,13.81
2023-04-05T17:46:54.292Z,13.79
2023-04-05T17:49:31.872Z,13.99
2023-04-05T17:52:01.838Z,13.91
2023-04-05T17:54:37.435Z,13.86
2023-04-05T17:57:07.527Z,14.00
2023-04-05T17:59:38.860Z,14.14
2023-04-05T18:02:08.705Z,14.00
2023-04-05T18:04:39.438Z,14.22
2023-04-05T18:07:09.748Z,14.43
2023-04-05T18:09:42.185Z,14.48
2023-04-05T18:12:11.393Z,14.59
2023-04-05T18:14:41.564Z,14.57
2023-04-05T18:17:11.143Z,14.60
2023-04-05T18:19:39.958Z,14.73
2023-04-05T18:22:10.385Z,14.57
2023-04-05T18:24:39.686Z,14.65
2023-04-05T18:27:08.890Z,14.73
2023-04-05T18:29:38.634Z,14.96
2023-04-05T18:32:09.947Z,14.88
2023-04-05T18:34:39.528Z,15.15
2023-04-05T18:37:11.569Z,15.27
2023-04-05T18:39:41.474Z,15.38
2023-04-05T18:42:10.808Z,15.32
2023-04-05T18:44:44.908Z,15.06
2023-04-05T18:47:19.060Z,15.34
2023-04-05T18:49:49.065Z,15.27
2023-04-05T18:52:22.836Z,15.33
2023-04-05T18:54:52.423Z,15.40
2023-04-05T18:57:24.967Z,15.23
2023-04-05T18:59:55.136Z,15.68
2023-04-05T19:02:26.026Z,15.40
2023-04-05T19:04:58.967Z,15.52
2023-04-05T19:07:28.215Z,15.50
2023-04-05T19:10:00.253Z,15.62
2023-04-05T19:12:30.854Z,16.07
2023-04-05T19:15:00.328Z,15.88
2023-04-05T19:17:31.985Z,15.84
2023-04-05T19:20:03.063Z,15.96
2023-04-05T19:22:34.605Z,16.07
2023-04-05T19:25:05.522Z,16.01
2023-04-05T19:27:36.287Z,16.12
2023-04-05T19:30:07.654Z,16.26
2023-04-05T19:32:37.909Z,16.45
2023-04-05T19:35:11.181Z,16.53
2023-04-05T19:37:40.741Z,16.75
2023-04-05T19:40:13.144Z,16.68
2023-04-05T19:42:47.887Z,17.07
2023-04-05T19:45:27.199Z,16.79
2023-04-05T19:47:59.283Z,16.99
2023-04-05T19:50:48.953Z,16.72
2023-04-05T19:53:40.843Z,16.74
2023-04-05T19:56:13.115Z,17.20
2023-04-05T19:58:44.057Z,17.31
2023-04-05T20:01:38.478Z,16.99
2023-04-05T20:04:14.645Z,17.08
2023-04-05T20:06:47.903Z,17.37
2023-04-05T20:09:18.549Z,17.41
2023-04-05T20:11:52.289Z,17.42
2023-04-05T20:14:22.461Z,17.67
2023-04-05T20:16:52.908Z,17.62
2023-04-05T20:19:34.179Z,17.57
2023-04-05T20:22:08.967Z,17.65
2023-04-05T20:24:40.349Z,17.15
2023-04-05T20:27:09.444Z,17.07
2023-04-05T20:29:38.727Z,17.91
2023-04-05T20:32:08.480Z,18.01
2023-04-05T20:34:48.072Z,17.96
2023-04-05T20:37:17.628Z,18.07
2023-04-05T20:39:46.504Z,18.30
2023-04-05T20:42:15.816Z,18.15
2023-04-05T20:44:46.985Z,18.16
2023-04-05T20:47:16.521Z,18.16
2023-04-05T20:49:50.474Z,18.19
2023-04-05T20:52:20.092Z,18.59
2023-04-05T20:54:51.437Z,18.54
2023-04-05T20:57:20.983Z,18.52
2023-04-05T20:59:49.887Z,18.70
2023-04-05T21:02:20.063Z,18.68
2023-04-05T21:04:51.020Z,18.50
2023-04-05T21:07:20.894Z,18.63
2023-04-05T21:09:52.636Z,18.63
2023-04-05T21:12:22.007Z,18.92
2023-04-05T21:14:51.574Z,18.89
2023-04-05T21:17:22.231Z,19.01
2023-04-05T21:19:53.373Z,18.75
2023-04-05T21:22:22.383Z,19.03
2023-04-05T21:24:51.842Z,19.12
2023-04-05T21:27:21.523Z,19.11
2023-04-05T21:29:52.388Z,19.32
2023-04-05T21:32:21.716Z,19.07
2023-04-05T21:34:55.571Z,19.00
2023-04-05T21:37:26.857Z,19.05
2023-04-05T21:39:57.272Z,19.20
2023-04-05T21:42:28.889Z,19.43
2023-04-05T21:44:58.535Z,19.56
2023-04-05T21:47:32.363Z,19.57
2023-04-05T21:50:06.840Z,19.31
2023-04-05T21:52:39.637Z,19.45
2023-04-05T21:55:11.880Z,19.56
2023-04-05T21:57:44.450Z,19.50
2023-04-05T22:00:15.725Z,19.62
2023-04-05T22:02:57.174Z,19.54
2023-04-05T22:05:38.535Z,18.93
2023-04-05T22:08:20.444Z,19.69
2023-04-05T22:10:53.933Z,19.77
2023-04-05T22:13:32.790Z,19.71
2023-04-05T22:16:03.540Z,19.64
2023-04-05T22:18:39.018Z,19.68
2023-04-05T22:21:09.828Z,19.60
2023-04-05T22:23:40.524Z,19.59
2023-04-05T22:26:12.031Z,19.86
2023-04-05T22:28:51.183Z,19.75
2023-04-05T22:31:24.106Z,19.58
2023-04-05T22:33:53.779Z,19.85
2023-04-05T22:36:30.660Z,19.55
2023-04-05T22:39:03.937Z,19.67
2023-04-05T22:41:33.005Z,19.73
2023-04-05T22:44:03.062Z,19.86
2023-04-05T22:46:35.682Z,19.67
2023-04-05T22:49:06.100Z,19.67
2023-04-05T22:51:41.561Z,19.67
2023-04-05T22:54:16.841Z,19.59
2023-04-05T22:56:51.925Z,19.48
2023-04-05T22:59:25.207Z,19.60
2023-04-05T23:01:54.083Z,19.68
2023-04-05T23:04:37.883Z,19.54
2023-04-05T23:07:24.520Z,19.14
2023-04-05T23:10:06.268Z,19.51
2023-04-05T23:12:35.302Z,19.85
2023-04-05T23:15:06.184Z,19.84
2023-04-05T23:17:41.122Z,20.05
2023-04-05T23:20:12.448Z,20.09
2023-04-05T23:22:57.273Z,20.39
2023-04-05T23:25:35.036Z,20.30
2023-04-05T23:28:04.615Z,20.33
2023-04-05T23:30:40.517Z,20.44
2023-04-05T23:33:16.846Z,20.46
2023-04-05T23:35:59.803Z,20.84
2023-04-05T23:38:53.532Z,20.33
2023-04-05T23:41:33.674Z,20.88
2023-04-05T23:44:08.578Z,21.07
2023-04-05T23:46:42.282Z,21.16
2023-04-05T23:49:12.245Z,21.26
2023-04-05T23:51:42.781Z,21.30
2023-04-05T23:54:26.975Z,21.25
2023-04-05T23:57:20.483Z,21.24
2023-04-05T23:59:52.754Z,21.77
